createdAt,value
2022-10-12T00:01:41.232Z,68.20
2022-10-12T00:05:44.868Z,68.40
2022-10-12T00:09:47.702Z,68.50
2022-10-12T00:13:54.426Z,68.70
2022-10-12T00:17:57.111Z,68.80
2022-10-12T00:22:01.613Z,67.90
2022-10-12T00:26:07.060Z,67.70
2022-10-12T00:30:10.616Z,66.70
2022-10-12T00:34:13.405Z,66.00
2022-10-12T00:38:16.621Z,65.40
2022-10-12T00:42:21.162Z,65.10
2022-10-12T00:46:37.203Z,64.70
2022-10-12T00:50:40.057Z,64.30
2022-10-12T00:54:46.814Z,64.70
2022-10-12T00:58:50.108Z,65.30
2022-10-12T01:02:54.275Z,65.40
2022-10-12T01:06:57.078Z,66.70
2022-10-12T01:10:59.808Z,67.00
2022-10-12T01:15:03.820Z,67.30
2022-10-12T01:19:25.221Z,67.50
2022-10-12T01:24:05.503Z,68.00
2022-10-12T01:28:17.011Z,68.00
2022-10-12T01:32:52.592Z,68.60
2022-10-12T01:37:05.176Z,68.30
2022-10-12T01:41:37.180Z,68.80
2022-10-12T01:45:40.081Z,68.90
2022-10-12T01:49:42.893Z,68.80
2022-10-12T01:54:01.644Z,68.90
2022-10-12T01:58:22.322Z,69.10
2022-10-12T02:02:30.830Z,69.20
2022-10-12T02:06:48.268Z,69.10
2022-10-12T02:11:00.190Z,69.30
2022-10-12T02:15:07.013Z,69.50
2022-10-12T02:19:10.975Z,69.30
2022-10-12T02:23:14.858Z,68.40
2022-10-12T02:27:20.245Z,67.70
2022-10-12T02:31:38.072Z,66.90
2022-10-12T02:35:51.085Z,66.20
2022-10-12T02:40:10.745Z,65.50
2022-10-12T02:44:18.016Z,64.80
2022-10-12T02:48:24.128Z,65.10
2022-10-12T02:52:27.589Z,65.30
2022-10-12T02:56:30.458Z,66.10
2022-10-12T03:00:35.051Z,66.60
2022-10-12T03:04:38.165Z,66.90
2022-10-12T03:08:41.000Z,67.20
2022-10-12T03:12:49.130Z,67.50
2022-10-12T03:16:52.977Z,67.80
2022-10-12T03:20:55.742Z,67.90
2022-10-12T03:25:00.465Z,68.00
2022-10-12T03:29:03.340Z,68.20
2022-10-12T03:33:06.042Z,68.40
2022-10-12T03:37:08.913Z,68.50
2022-10-12T03:41:11.754Z,68.60
2022-10-12T03:45:14.652Z,68.70
2022-10-12T03:49:17.983Z,68.90
2022-10-12T03:53:21.193Z,69.00
2022-10-12T03:57:23.985Z,69.30
2022-10-12T04:01:26.908Z,69.40
2022-10-12T04:05:31.058Z,69.70
2022-10-12T04:09:33.965Z,70.00
2022-10-12T04:13:37.029Z,70.40
2022-10-12T04:17:40.181Z,70.50
2022-10-12T04:21:43.152Z,70.60
2022-10-12T04:25:46.639Z,70.60
2022-10-12T04:29:49.823Z,70.60
2022-10-12T04:33:57.127Z,70.80
2022-10-12T04:37:59.881Z,71.00
2022-10-12T04:42:02.917Z,70.30
2022-10-12T04:46:06.049Z,71.30
2022-10-12T04:50:09.452Z,71.50
2022-10-12T04:54:12.314Z,71.50
2022-10-12T04:58:15.988Z,71.50
2022-10-12T05:02:18.734Z,71.60
2022-10-12T05:06:21.849Z,71.50
2022-10-12T05:10:24.596Z,71.70
2022-10-12T05:14:33.509Z,71.90
2022-10-12T05:18:38.619Z,72.00
2022-10-12T05:22:41.559Z,72.10
2022-10-12T05:26:44.629Z,72.10
2022-10-12T05:30:51.065Z,72.30
2022-10-12T05:34:55.341Z,72.50
2022-10-12T05:38:58.087Z,72.30
2022-10-12T05:43:01.155Z,72.50
2022-10-12T05:47:04.035Z,72.50
2022-10-12T05:51:06.877Z,72.70
2022-10-12T05:55:10.049Z,72.80
2022-10-12T05:59:12.918Z,72.90
2022-10-12T06:03:18.624Z,73.00
2022-10-12T06:07:22.005Z,73.10
2022-10-12T06:11:24.923Z,72.80
2022-10-12T06:15:27.769Z,73.10
2022-10-12T06:19:30.689Z,73.00
2022-10-12T06:23:33.501Z,72.80
2022-10-12T06:27:36.323Z,72.80
2022-10-12T06:31:40.080Z,73.00
2022-10-12T06:35:42.758Z,73.00
2022-10-12T06:39:45.569Z,72.90
2022-10-12T06:43:48.405Z,73.00
2022-10-12T06:47:51.261Z,72.90
2022-10-12T06:51:53.981Z,72.80
2022-10-12T06:55:57.114Z,72.60
2022-10-12T07:00:00.078Z,72.30
2022-10-12T07:04:02.904Z,71.90
2022-10-12T07:08:06.302Z,71.90
2022-10-12T07:12:09.420Z,71.90
2022-10-12T07:16:12.159Z,71.60
2022-10-12T07:20:15.235Z,71.00
2022-10-12T07:24:17.931Z,70.70
2022-10-12T07:28:21.954Z,70.40
2022-10-12T07:32:24.873Z,70.20
2022-10-12T07:36:47.489Z,69.60
2022-10-12T07:40:50.537Z,69.50
2022-10-12T07:44:53.313Z,69.30
2022-10-12T07:48:56.044Z,69.10
2022-10-12T07:52:58.839Z,69.00
2022-10-12T07:57:01.605Z,68.70
2022-10-12T08:01:06.433Z,68.60
2022-10-12T08:05:09.617Z,68.70
2022-10-12T08:09:12.505Z,68.70
2022-10-12T08:13:15.409Z,68.30
2022-10-12T08:17:20.044Z,68.10
2022-10-12T08:21:22.938Z,67.90
2022-10-12T08:25:26.263Z,66.70
2022-10-12T08:29:29.568Z,66.00
2022-10-12T08:33:33.068Z,65.60
2022-10-12T08:37:36.079Z,65.10
2022-10-12T08:42:09.319Z,64.50
2022-10-12T08:46:12.424Z,63.50
2022-10-12T08:50:23.924Z,63.30
2022-10-12T08:54:35.635Z,62.50
2022-10-12T08:58:40.148Z,62.10
2022-10-12T09:02:51.177Z,62.20
2022-10-12T09:07:15.687Z,61.60
2022-10-12T09:11:47.052Z,61.40
2022-10-12T09:16:02.016Z,60.20
2022-10-12T09:20:17.268Z,58.20
2022-10-12T09:24:27.165Z,58.50
2022-10-12T09:28:39.084Z,58.50
2022-10-12T09:33:18.353Z,58.10
2022-10-12T09:37:28.224Z,58.10
2022-10-12T09:41:40.788Z,56.30
2022-10-12T09:45:43.972Z,56.40
2022-10-12T09:49:50.294Z,55.90
2022-10-12T09:53:57.652Z,55.20
2022-10-12T09:58:02.824Z,55.80
2022-10-12T10:02:11.532Z,56.20
2022-10-12T10:06:15.749Z,55.40
2022-10-12T10:10:29.668Z,54.80
2022-10-12T10:14:33.677Z,54.50
2022-10-12T10:18:55.161Z,53.80
2022-10-12T10:22:59.280Z,53.10
2022-10-12T10:27:05.356Z,53.90
2022-10-12T10:31:23.374Z,53.70
2022-10-12T10:35:26.230Z,53.20
2022-10-12T10:39:33.238Z,53.00
2022-10-12T10:43:36.420Z,52.40
2022-10-12T10:47:46.323Z,53.60
2022-10-12T10:51:57.811Z,52.90
2022-10-12T10:56:22.938Z,53.30
2022-10-12T11:00:38.640Z,54.20
2022-10-12T11:04:47.903Z,52.70
2022-10-12T11:08:58.172Z,52.70
2022-10-12T11:13:20.315Z,53.10
2022-10-12T11:17:45.941Z,53.20
2022-10-12T11:22:04.819Z,53.60
2022-10-12T11:26:28.668Z,53.10
2022-10-12T11:30:39.922Z,52.20
2022-10-12T11:34:51.376Z,52.00
2022-10-12T11:39:06.678Z,52.20
2022-10-12T11:43:16.905Z,51.80
2022-10-12T11:47:30.666Z,51.80
2022-10-12T11:51:33.565Z,50.40
2022-10-12T11:55:45.454Z,50.60
2022-10-12T11:59:55.589Z,50.20
2022-10-12T12:04:40.038Z,50.10
2022-10-12T12:08:39.808Z,50.60
2022-10-12T12:13:13.222Z,50.50
2022-10-12T12:17:19.387Z,50.50
2022-10-12T12:21:22.609Z,48.60
2022-10-12T12:25:32.780Z,48.60
2022-10-12T12:29:36.428Z,49.80
2022-10-12T12:33:42.723Z,48.90
2022-10-12T12:37:46.196Z,48.20
2022-10-12T12:42:02.024Z,49.20
2022-10-12T12:46:08.425Z,48.80
2022-10-12T12:50:36.156Z,48.30
2022-10-12T12:55:04.558Z,48.40
2022-10-12T12:59:41.370Z,49.20
2022-10-12T13:04:18.583Z,48.80
2022-10-12T13:08:48.689Z,48.50
2022-10-12T13:13:29.229Z,48.80
2022-10-12T13:18:02.871Z,48.60
2022-10-12T13:22:29.505Z,48.30
2022-10-12T13:26:35.808Z,49.00
2022-10-12T13:30:46.676Z,48.20
2022-10-12T13:34:52.793Z,47.80
2022-10-12T13:39:00.679Z,48.90
2022-10-12T13:43:40.746Z,48.00
2022-10-12T13:47:43.821Z,48.70
2022-10-12T13:52:12.848Z,49.00
2022-10-12T13:56:26.833Z,49.00
2022-10-12T14:00:30.492Z,49.10
2022-10-12T14:04:35.018Z,48.60
2022-10-12T14:08:38.549Z,48.00
2022-10-12T14:12:45.438Z,48.50
2022-10-12T14:16:51.164Z,48.00
2022-10-12T14:21:07.811Z,47.50
2022-10-12T14:25:31.494Z,48.60
2022-10-12T14:29:45.164Z,48.40
2022-10-12T14:33:48.048Z,48.90
2022-10-12T14:37:52.591Z,49.10
2022-10-12T14:41:57.750Z,48.90
2022-10-12T14:46:00.608Z,48.40
2022-10-12T14:50:08.410Z,49.20
2022-10-12T14:54:12.497Z,49.10
2022-10-12T14:58:17.357Z,49.20
2022-10-12T15:02:28.988Z,49.60
2022-10-12T15:06:31.936Z,50.40
2022-10-12T15:10:35.759Z,50.30
2022-10-12T15:14:38.700Z,51.00
2022-10-12T15:18:41.561Z,51.60
2022-10-12T15:22:45.109Z,51.00
2022-10-12T15:26:47.972Z,51.00
2022-10-12T15:31:16.629Z,52.60
2022-10-12T15:35:26.323Z,53.60
2022-10-12T15:39:29.238Z,54.50
2022-10-12T15:43:34.643Z,53.50
2022-10-12T15:47:39.716Z,53.30
2022-10-12T15:51:48.028Z,53.90
2022-10-12T15:55:55.634Z,53.60
2022-10-12T15:59:58.589Z,53.10
2022-10-12T16:04:02.659Z,53.30
2022-10-12T16:08:06.383Z,54.00
2022-10-12T16:12:09.282Z,54.90
2022-10-12T16:16:12.454Z,54.90
2022-10-12T16:20:15.640Z,54.90
2022-10-12T16:24:19.012Z,55.60
2022-10-12T16:28:23.839Z,55.50
2022-10-12T16:32:29.807Z,56.60
2022-10-12T16:36:32.818Z,56.60
2022-10-12T16:40:38.222Z,56.00
2022-10-12T16:44:41.172Z,56.10
2022-10-12T16:48:44.763Z,56.20
2022-10-12T16:52:48.730Z,56.30
2022-10-12T16:56:52.010Z,56.60
2022-10-12T17:00:55.296Z,56.50
2022-10-12T17:04:58.795Z,56.60
2022-10-12T17:09:01.624Z,56.80
2022-10-12T17:13:04.406Z,57.10
2022-10-12T17:17:09.528Z,57.10
2022-10-12T17:21:12.467Z,57.20
2022-10-12T17:25:16.236Z,57.40
2022-10-12T17:29:20.176Z,57.50
2022-10-12T17:33:23.085Z,57.80
2022-10-12T17:37:25.808Z,57.70
2022-10-12T17:41:30.013Z,57.80
2022-10-12T17:45:32.898Z,58.10
2022-10-12T17:49:35.791Z,58.10
2022-10-12T17:53:40.345Z,58.30
2022-10-12T17:57:43.280Z,58.50
2022-10-12T18:01:47.390Z,58.70
2022-10-12T18:05:50.176Z,58.80
2022-10-12T18:09:53.719Z,58.90
2022-10-12T18:13:57.573Z,58.70
2022-10-12T18:18:02.936Z,59.00
2022-10-12T18:22:05.598Z,59.30
2022-10-12T18:26:11.262Z,59.50
2022-10-12T18:30:14.135Z,59.60
2022-10-12T18:34:16.940Z,59.70
2022-10-12T18:38:20.771Z,59.90
2022-10-12T18:42:23.710Z,59.90
2022-10-12T18:46:28.985Z,59.70
2022-10-12T18:50:31.959Z,59.70
2022-10-12T18:54:35.529Z,59.60
2022-10-12T18:58:38.613Z,59.60
2022-10-12T19:02:41.687Z,59.70
2022-10-12T19:06:44.668Z,59.70
2022-10-12T19:10:47.455Z,59.70
2022-10-12T19:14:50.449Z,59.70
2022-10-12T19:19:01.639Z,59.60
2022-10-12T19:23:05.169Z,59.60
2022-10-12T19:27:07.966Z,59.80
2022-10-12T19:31:20.620Z,59.90
2022-10-12T19:35:27.392Z,60.20
2022-10-12T19:39:32.077Z,60.70
2022-10-12T19:43:35.896Z,60.90
2022-10-12T19:47:38.746Z,61.10
2022-10-12T19:51:42.966Z,61.20
2022-10-12T19:55:45.800Z,61.30
2022-10-12T19:59:48.557Z,61.30
2022-10-12T20:03:51.699Z,61.60
2022-10-12T20:07:54.660Z,61.80
2022-10-12T20:11:57.449Z,61.70
2022-10-12T20:16:04.200Z,61.70
2022-10-12T20:20:07.812Z,61.80
2022-10-12T20:24:10.757Z,61.90
2022-10-12T20:28:14.377Z,61.90
2022-10-12T20:32:17.405Z,61.70
2022-10-12T20:36:24.244Z,61.80
2022-10-12T20:40:27.779Z,61.80
2022-10-12T20:44:32.185Z,61.80
2022-10-12T20:48:35.135Z,61.80
2022-10-12T20:52:38.536Z,62.00
2022-10-12T20:56:43.410Z,62.10
2022-10-12T21:00:46.327Z,61.90
2022-10-12T21:04:50.380Z,61.70
2022-10-12T21:08:57.850Z,61.60
2022-10-12T21:13:01.564Z,61.50
2022-10-12T21:17:04.758Z,61.60
2022-10-12T21:21:20.235Z,61.60
2022-10-12T21:25:23.543Z,61.80
2022-10-12T21:29:29.071Z,61.90
2022-10-12T21:33:32.190Z,61.80
2022-10-12T21:37:37.620Z,61.90
2022-10-12T21:41:42.832Z,62.00
2022-10-12T21:45:45.606Z,61.80
2022-10-12T21:49:48.449Z,61.70
2022-10-12T21:53:54.156Z,61.90
2022-10-12T21:57:57.568Z,62.10
2022-10-12T22:02:02.206Z,62.10
2022-10-12T22:06:06.029Z,62.50
2022-10-12T22:10:21.988Z,62.40
2022-10-12T22:14:26.547Z,62.40
2022-10-12T22:18:29.348Z,62.80
2022-10-12T22:22:32.498Z,62.50
2022-10-12T22:26:35.436Z,62.30
2022-10-12T22:30:42.236Z,62.10
2022-10-12T22:34:49.111Z,61.90
2022-10-12T22:38:54.516Z,61.70
2022-10-12T22:42:57.697Z,61.40
2022-10-12T22:47:02.006Z,61.20
2022-10-12T22:51:06.897Z,60.90
2022-10-12T22:55:10.313Z,60.80
2022-10-12T22:59:19.886Z,60.60
2022-10-12T23:03:27.333Z,60.50
2022-10-12T23:07:33.292Z,60.20
2022-10-12T23:11:40.333Z,60.00
2022-10-12T23:15:43.831Z,59.90
2022-10-12T23:19:53.316Z,59.50
2022-10-12T23:23:58.471Z,59.40
2022-10-12T23:28:01.886Z,59.00
2022-10-12T23:32:05.158Z,58.90
2022-10-12T23:36:10.790Z,58.90
2022-10-12T23:40:13.591Z,58.80
2022-10-12T23:44:29.580Z,58.70
2022-10-12T23:48:34.875Z,58.50
2022-10-12T23:52:37.799Z,58.30
2022-10-12T23:56:44.383Z,58.30
